Time;durP1;ratioP1;P1;durP2;ratioP2;P2;SDS_P1;SDS_P2;PMS_P1;PMS_P2;Temp;Humidity;BMP_temperature;BMP_pressure;BME280_temperature;BME280_humidity;BME280_pressure;Samples;Min_cycle;Max_cycle;Signal;HPM_P1;HPM_P2
2023/02/25 00:00:34;;;;;;;22.77;10.73;;;4.20;99.90;;;;;;5038831;28;20204;-74
2023/02/25 00:03:00;;;;;;;24.90;10.73;;;4.20;99.90;;;;;;5033544;28;20206;-74
2023/02/25 00:05:29;;;;;;;21.57;10.67;;;4.20;99.90;;;;;;5041679;28;20195;-83
2023/02/25 00:07:58;;;;;;;24.93;10.93;;;4.20;99.90;;;;;;5049593;28;20202;-84
2023/02/25 00:10:25;;;;;;;22.93;10.23;;;4.20;99.90;;;;;;5027471;28;20230;-71
2023/02/25 00:12:52;;;;;;;19.30;9.87;;;4.20;99.90;;;;;;5032657;28;20572;-79
2023/02/25 00:15:18;;;;;;;18.73;9.77;;;4.20;99.90;;;;;;5033931;28;20211;-77
2023/02/25 00:17:47;;;;;;;20.30;10.03;;;4.20;99.90;;;;;;5034856;28;20222;-72
2023/02/25 00:20:16;;;;;;;21.57;10.37;;;4.10;99.90;;;;;;5035902;28;20209;-72
2023/02/25 00:22:42;;;;;;;22.10;10.57;;;4.10;99.90;;;;;;5024071;28;20202;-80
2023/02/25 00:25:09;;;;;;;21.97;9.60;;;4.10;99.90;;;;;;5032037;28;20204;-72
2023/02/25 00:27:39;;;;;;;18.07;9.23;;;4.10;99.90;;;;;;5029389;28;20552;-74
2023/02/25 00:30:09;;;;;;;17.57;9.23;;;4.00;99.90;;;;;;5032156;28;20193;-68
2023/02/25 00:32:37;;;;;;;17.07;8.90;;;4.10;99.90;;;;;;5034788;28;20219;-68
2023/02/25 00:35:04;;;;;;;19.90;9.07;;;4.20;99.90;;;;;;5032619;28;20307;-74
2023/02/25 00:37:31;;;;;;;17.83;9.00;;;4.20;99.90;;;;;;5034623;28;20204;-69
2023/02/25 00:39:58;;;;;;;19.53;9.23;;;4.10;99.90;;;;;;5033204;28;20204;-72
2023/02/25 00:42:25;;;;;;;19.93;9.77;;;4.10;99.90;;;;;;5033272;28;20200;-77
2023/02/25 00:44:52;;;;;;;19.37;9.67;;;4.20;99.90;;;;;;5029547;28;20284;-79
2023/02/25 00:47:20;;;;;;;22.33;9.97;;;4.20;99.90;;;;;;5014596;28;20191;-78
2023/02/25 00:49:47;;;;;;;24.70;10.40;;;4.20;99.90;;;;;;5014449;28;20182;-75
2023/02/25 00:52:15;;;;;;;23.10;11.03;;;4.30;99.90;;;;;;5013327;28;20229;-76
2023/02/25 00:54:42;;;;;;;23.57;11.13;;;4.30;99.90;;;;;;5023307;28;20658;-76
2023/02/25 00:57:09;;;;;;;26.60;11.47;;;4.30;99.90;;;;;;5032635;28;20220;-75
2023/02/25 00:59:36;;;;;;;21.23;10.90;;;4.30;99.90;;;;;;5033061;28;20665;-77
2023/02/25 01:02:03;;;;;;;23.47;10.87;;;4.30;99.90;;;;;;5025293;28;20201;-74
2023/02/25 01:04:30;;;;;;;21.63;10.93;;;4.20;99.90;;;;;;5033999;28;20208;-73
2023/02/25 01:06:57;;;;;;;22.60;11.27;;;4.20;99.90;;;;;;5032771;28;20221;-77
2023/02/25 01:09:24;;;;;;;24.03;11.87;;;4.20;99.90;;;;;;5032983;28;20208;-76
2023/02/25 01:11:51;;;;;;;26.37;11.43;;;4.10;99.90;;;;;;5016565;28;20245;-76
2023/02/25 01:14:22;;;;;;;23.30;11.93;;;4.20;99.90;;;;;;5032321;28;20230;-75
2023/02/25 01:16:50;;;;;;;28.07;12.57;;;4.10;99.90;;;;;;5034040;28;20192;-77
2023/02/25 01:19:20;;;;;;;24.80;12.97;;;4.10;99.90;;;;;;5033752;28;20217;-75
2023/02/25 01:21:50;;;;;;;27.07;12.33;;;4.00;99.90;;;;;;5034071;28;20733;-71
2023/02/25 01:24:23;;;;;;;24.37;12.40;;;4.00;99.90;;;;;;5032511;28;20206;-71
2023/02/25 01:26:52;;;;;;;31.37;12.00;;;4.00;99.90;;;;;;5016113;28;20199;-75
2023/02/25 01:29:38;;;;;;;24.87;11.50;;;3.90;99.90;;;;;;5033602;28;20424;-73
2023/02/25 01:32:12;;;;;;;21.30;10.57;;;3.80;99.90;;;;;;5032105;28;20310;-76
2023/02/25 01:34:40;;;;;;;23.50;11.00;;;3.80;99.90;;;;;;5023330;28;20332;-74
2023/02/25 01:37:07;;;;;;;21.20;10.60;;;3.80;99.90;;;;;;5012548;28;20214;-78
2023/02/25 01:39:34;;;;;;;21.53;10.47;;;3.70;99.90;;;;;;5012603;28;20208;-75
2023/02/25 01:42:15;;;;;;;21.50;10.13;;;3.60;99.90;;;;;;5030578;28;20639;-76
2023/02/25 01:45:16;;;;;;;21.93;10.57;;;3.60;99.90;;;;;;5013993;28;20192;-77
2023/02/25 01:47:55;;;;;;;20.43;10.43;;;3.60;99.90;;;;;;5030225;28;20203;-81
2023/02/25 01:50:27;;;;;;;21.67;10.57;;;3.70;99.90;;;;;;5031847;28;20203;-78
2023/02/25 01:52:57;;;;;;;20.27;10.07;;;3.70;99.90;;;;;;5032952;28;20869;-78
2023/02/25 01:55:24;;;;;;;24.03;10.40;;;3.70;99.90;;;;;;5033254;28;20208;-78
2023/02/25 01:57:51;;;;;;;22.27;10.87;;;3.70;99.90;;;;;;5032997;28;20218;-80
2023/02/25 02:00:18;;;;;;;22.70;11.20;;;3.60;99.90;;;;;;5031888;28;20195;-75
2023/02/25 02:02:48;;;;;;;22.37;11.17;;;3.60;99.90;;;;;;5031751;28;20240;-78
2023/02/25 02:05:15;;;;;;;23.17;11.00;;;3.70;99.90;;;;;;5033163;28;20544;-82
2023/02/25 02:07:42;;;;;;;23.50;10.37;;;3.60;99.90;;;;;;5031555;28;20204;-78
2023/02/25 02:10:10;;;;;;;27.53;11.83;;;3.60;99.90;;;;;;5033191;28;20572;-79
2023/02/25 02:12:41;;;;;;;23.77;10.63;;;3.60;99.90;;;;;;5031621;28;20222;-71
2023/02/25 02:15:11;;;;;;;20.73;10.97;;;3.50;99.90;;;;;;5031264;28;20200;-78
2023/02/25 02:17:44;;;;;;;24.27;10.47;;;3.50;99.90;;;;;;5033193;28;20213;-79
2023/02/25 02:20:14;;;;;;;23.80;11.17;;;3.50;99.90;;;;;;5031344;28;20193;-75
2023/02/25 02:23:20;;;;;;;21.40;10.87;;;3.40;99.90;;;;;;5031803;28;20246;-77
2023/02/25 02:25:54;;;;;;;26.20;10.43;;;3.50;99.90;;;;;;5018148;28;20199;-80
2023/02/25 02:28:41;;;;;;;23.33;10.83;;;3.50;99.90;;;;;;5032640;28;20196;-78
2023/02/25 02:31:46;;;;;;;24.03;10.67;;;3.50;99.90;;;;;;5015382;28;20645;-85
2023/02/25 02:34:38;;;;;;;23.13;10.70;;;3.40;99.90;;;;;;5031534;28;20219;-84
2023/02/25 02:37:30;;;;;;;24.20;10.13;;;3.40;99.90;;;;;;5032388;28;20206;-86
2023/02/25 02:40:13;;;;;;;22.00;10.67;;;3.40;99.90;;;;;;5031626;28;20645;-84
2023/02/25 02:43:05;;;;;;;23.90;10.90;;;3.40;99.90;;;;;;5033000;28;20612;-85
2023/02/25 02:45:52;;;;;;;24.93;10.57;;;3.40;99.90;;;;;;5033607;28;20559;-84
2023/02/25 02:48:51;;;;;;;21.50;10.37;;;3.40;99.90;;;;;;4940259;29;20266;-84
2023/02/25 02:51:29;;;;;;;21.40;10.13;;;3.40;99.90;;;;;;4950515;28;20217;-84
2023/02/25 02:53:59;;;;;;;21.07;10.20;;;3.40;99.90;;;;;;4955100;28;20216;-84
2023/02/25 02:56:29;;;;;;;25.77;10.70;;;3.40;99.90;;;;;;4956352;29;20713;-79
2023/02/25 02:59:13;;;;;;;21.03;11.23;;;3.40;99.90;;;;;;4956259;28;20653;-81
2023/02/25 03:01:55;;;;;;;22.80;10.43;;;3.40;99.90;;;;;;4940228;29;20618;-79
2023/02/25 03:04:29;;;;;;;21.17;10.40;;;3.40;99.90;;;;;;4955904;29;20598;-82
2023/02/25 03:07:01;;;;;;;22.30;11.23;;;3.40;99.90;;;;;;4955992;29;20204;-75
2023/02/25 03:09:42;;;;;;;24.20;10.70;;;3.40;99.90;;;;;;4939935;29;20206;-75
2023/02/25 03:12:09;;;;;;;24.97;10.33;;;3.50;99.90;;;;;;4939773;29;20230;-78
2023/02/25 03:14:36;;;;;;;20.00;10.20;;;3.40;99.90;;;;;;4955565;29;20556;-81
2023/02/25 03:17:26;;;;;;;23.63;10.63;;;3.40;99.90;;;;;;4955516;28;20317;-80
2023/02/25 03:20:09;;;;;;;19.17;9.50;;;3.40;99.90;;;;;;4939127;29;20210;-76
2023/02/25 03:22:40;;;;;;;25.47;11.27;;;3.50;99.90;;;;;;4939833;29;20751;-78
2023/02/25 03:25:30;;;;;;;23.13;10.63;;;3.40;99.90;;;;;;4970689;28;20208;-77
2023/02/25 03:28:15;;;;;;;25.63;10.33;;;3.50;99.90;;;;;;5034696;28;20227;-72
2023/02/25 03:31:12;;;;;;;20.87;10.77;;;3.50;99.90;;;;;;5034512;28;20192;-75
2023/02/25 03:33:53;;;;;;;23.23;10.90;;;3.40;99.90;;;;;;5033152;28;20220;-74
2023/02/25 03:36:26;;;;;;;24.93;10.97;;;3.40;99.90;;;;;;5034462;28;20211;-82
2023/02/25 03:38:58;;;;;;;27.17;11.40;;;3.50;99.90;;;;;;5034707;28;20219;-76
2023/02/25 03:41:29;;;;;;;23.23;10.97;;;3.50;99.90;;;;;;5035820;28;20203;-76
2023/02/25 03:43:58;;;;;;;27.97;10.57;;;3.50;99.90;;;;;;5035805;28;20192;-77
2023/02/25 03:46:27;;;;;;;24.67;11.47;;;3.40;99.90;;;;;;5035676;28;20195;-82
2023/02/25 03:48:55;;;;;;;23.03;11.20;;;3.30;99.90;;;;;;5033829;28;20200;-76
2023/02/25 03:51:29;;;;;;;17.23;9.40;;;3.30;99.90;;;;;;5034703;28;20199;-81
2023/02/25 03:53:56;;;;;;;18.73;9.07;;;3.20;99.90;;;;;;5035696;28;20234;-73
2023/02/25 03:56:23;;;;;;;20.33;9.27;;;3.10;99.90;;;;;;5034438;28;20270;-77
2023/02/25 03:58:50;;;;;;;18.73;9.43;;;3.10;99.90;;;;;;5034293;28;20561;-77
2023/02/25 04:01:23;;;;;;;21.00;9.63;;;3.10;99.90;;;;;;5033968;28;20191;-76
2023/02/25 04:03:50;;;;;;;16.33;8.80;;;3.00;99.90;;;;;;5034188;28;20511;-76
2023/02/25 04:06:21;;;;;;;17.77;8.77;;;3.00;99.90;;;;;;5035224;28;20192;-77
2023/02/25 04:08:50;;;;;;;18.80;9.20;;;2.90;99.90;;;;;;5034128;28;20196;-77
2023/02/25 04:11:17;;;;;;;19.23;9.60;;;2.80;99.90;;;;;;5034274;28;20250;-73
2023/02/25 04:13:43;;;;;;;19.40;9.73;;;2.80;99.90;;;;;;5032836;28;20220;-73
2023/02/25 04:16:10;;;;;;;19.03;10.00;;;2.70;99.90;;;;;;5033318;28;20207;-76
2023/02/25 04:18:37;;;;;;;21.07;10.20;;;2.70;99.90;;;;;;5034198;28;20220;-77
2023/02/25 04:21:08;;;;;;;19.53;10.33;;;2.60;99.90;;;;;;5032631;28;20707;-77
2023/02/25 04:23:35;;;;;;;20.80;10.43;;;2.60;99.90;;;;;;5034322;28;20278;-72
2023/02/25 04:26:02;;;;;;;19.83;10.23;;;2.50;99.90;;;;;;5041052;28;20204;-75
2023/02/25 04:28:29;;;;;;;19.87;10.40;;;2.50;99.90;;;;;;5033787;28;20218;-72
2023/02/25 04:30:57;;;;;;;20.70;10.27;;;2.50;99.90;;;;;;5029387;28;20184;-73
2023/02/25 04:33:24;;;;;;;21.23;10.97;;;2.50;99.90;;;;;;5026900;28;20306;-73
2023/02/25 04:35:50;;;;;;;20.73;9.97;;;2.50;99.90;;;;;;5032148;28;20196;-71
2023/02/25 04:38:17;;;;;;;20.70;10.40;;;2.40;99.90;;;;;;5034934;28;20192;-76
2023/02/25 04:40:44;;;;;;;21.90;10.47;;;2.30;99.90;;;;;;5034948;28;20198;-74
2023/02/25 04:43:11;;;;;;;23.10;10.70;;;2.30;99.90;;;;;;5034856;28;20208;-74
2023/02/25 04:45:38;;;;;;;20.90;10.13;;;2.20;99.90;;;;;;5033017;28;20291;-73
2023/02/25 04:48:05;;;;;;;20.30;10.37;;;2.20;99.90;;;;;;5033552;28;20676;-71
2023/02/25 04:50:32;;;;;;;22.20;10.67;;;2.20;99.90;;;;;;5033136;28;20192;-70
2023/02/25 04:53:01;;;;;;;22.07;10.83;;;2.20;99.90;;;;;;5033196;28;20220;-71
2023/02/25 04:55:29;;;;;;;22.13;11.37;;;2.20;99.90;;;;;;5032663;28;20188;-72
2023/02/25 04:57:56;;;;;;;22.73;10.90;;;2.20;99.90;;;;;;5033929;28;20202;-70
2023/02/25 05:00:25;;;;;;;23.47;11.33;;;2.20;99.90;;;;;;5032866;28;20202;-72
2023/02/25 05:02:52;;;;;;;21.57;10.73;;;2.20;99.90;;;;;;5050963;28;20212;-72
2023/02/25 05:05:19;;;;;;;22.13;11.07;;;2.20;99.90;;;;;;5025822;28;20194;-71
2023/02/25 05:07:50;;;;;;;21.43;10.57;;;2.20;99.90;;;;;;5032446;28;20196;-69
2023/02/25 05:10:17;;;;;;;21.90;11.13;;;2.20;99.90;;;;;;5032644;28;20191;-70
2023/02/25 05:12:44;;;;;;;21.60;10.67;;;2.20;99.90;;;;;;5032512;28;20223;-71
2023/02/25 05:15:11;;;;;;;20.13;10.20;;;2.10;99.90;;;;;;5031751;28;20203;-74
2023/02/25 05:17:37;;;;;;;19.97;10.53;;;2.10;99.90;;;;;;5031930;28;20701;-71
2023/02/25 05:20:11;;;;;;;21.07;11.17;;;2.20;99.90;;;;;;5032377;28;20210;-68
2023/02/25 05:22:40;;;;;;;21.40;10.47;;;2.10;99.90;;;;;;5032346;28;20207;-73
2023/02/25 05:25:08;;;;;;;18.87;9.97;;;2.10;99.90;;;;;;5039166;28;20192;-70
2023/02/25 05:27:35;;;;;;;20.67;10.13;;;2.10;99.90;;;;;;5033823;28;20193;-68
2023/02/25 05:30:02;;;;;;;19.90;9.97;;;2.00;99.90;;;;;;5032484;28;20192;-72
2023/02/25 05:32:30;;;;;;;21.23;10.93;;;2.10;99.90;;;;;;5032251;28;20226;-71
2023/02/25 05:34:58;;;;;;;19.17;10.53;;;2.10;99.90;;;;;;5032004;28;20234;-75
2023/02/25 05:37:25;;;;;;;19.17;9.73;;;2.10;99.90;;;;;;5032450;28;20195;-75
2023/02/25 05:39:51;;;;;;;17.67;9.97;;;2.10;99.90;;;;;;5032163;28;20707;-76
2023/02/25 05:42:18;;;;;;;18.70;10.03;;;2.10;99.90;;;;;;5015874;28;20195;-76
2023/02/25 05:44:45;;;;;;;19.43;9.77;;;2.10;99.90;;;;;;5033241;28;20696;-78
2023/02/25 05:47:13;;;;;;;18.10;9.87;;;2.10;99.90;;;;;;5032210;28;20241;-77
2023/02/25 05:49:41;;;;;;;20.13;10.57;;;2.10;99.90;;;;;;5033216;28;20603;-70
2023/02/25 05:52:09;;;;;;;16.03;9.40;;;2.10;99.90;;;;;;5032089;28;20199;-75
2023/02/25 05:54:36;;;;;;;20.63;10.30;;;2.00;99.90;;;;;;5031633;28;20202;-71
2023/02/25 05:57:04;;;;;;;17.30;9.60;;;2.00;99.90;;;;;;5048576;28;20201;-73
2023/02/25 05:59:31;;;;;;;18.93;9.73;;;2.00;99.90;;;;;;5032177;28;20245;-74
2023/02/25 06:01:58;;;;;;;17.20;9.67;;;2.00;99.90;;;;;;5033013;28;20218;-72
2023/02/25 06:04:25;;;;;;;18.27;9.80;;;2.00;99.90;;;;;;5032884;28;20278;-72
2023/02/25 06:06:52;;;;;;;18.87;9.50;;;2.00;99.90;;;;;;5015408;28;20550;-72
2023/02/25 06:09:20;;;;;;;20.67;10.10;;;2.10;99.90;;;;;;5031616;28;20725;-71
2023/02/25 06:11:48;;;;;;;20.20;10.60;;;2.00;99.90;;;;;;5033742;28;20658;-72
2023/02/25 06:14:15;;;;;;;20.93;10.13;;;2.10;99.90;;;;;;5027117;28;20226;-71
2023/02/25 06:16:43;;;;;;;22.93;10.93;;;2.10;99.90;;;;;;5029904;28;20198;-70
2023/02/25 06:19:11;;;;;;;23.10;10.73;;;2.10;99.90;;;;;;5030613;28;20649;-72
2023/02/25 06:21:38;;;;;;;19.60;10.07;;;2.10;99.90;;;;;;5031010;28;20198;-73
2023/02/25 06:24:05;;;;;;;21.37;10.70;;;2.10;99.90;;;;;;5031242;28;20228;-72
2023/02/25 06:26:34;;;;;;;20.17;10.37;;;2.10;99.90;;;;;;5032101;28;20625;-72
2023/02/25 06:29:01;;;;;;;21.33;10.50;;;2.20;99.90;;;;;;5030842;28;20199;-71
2023/02/25 06:31:28;;;;;;;20.97;10.90;;;2.20;99.90;;;;;;5031550;28;20203;-72
2023/02/25 06:33:55;;;;;;;20.50;10.70;;;2.20;99.90;;;;;;5030950;28;20576;-71
2023/02/25 06:36:21;;;;;;;21.83;10.87;;;2.20;99.90;;;;;;5030741;28;20200;-72
2023/02/25 06:38:49;;;;;;;22.47;11.57;;;2.30;99.90;;;;;;5032845;28;20674;-72
2023/02/25 06:41:19;;;;;;;24.93;11.73;;;2.30;99.90;;;;;;5031240;28;20269;-73
2023/02/25 06:43:50;;;;;;;24.47;11.70;;;2.30;99.90;;;;;;5027310;28;20215;-70
2023/02/25 06:46:23;;;;;;;23.63;12.07;;;2.40;99.90;;;;;;5007591;28;20711;-75
2023/02/25 06:48:52;;;;;;;24.47;12.07;;;2.30;99.90;;;;;;5025119;28;20203;-71
2023/02/25 06:51:19;;;;;;;23.53;12.20;;;2.30;99.90;;;;;;5039594;28;20206;-74
2023/02/25 06:53:46;;;;;;;26.50;12.63;;;2.40;99.90;;;;;;5032087;28;20583;-75
2023/02/25 06:56:14;;;;;;;28.33;12.67;;;2.40;99.90;;;;;;5030432;28;20196;-76
2023/02/25 06:58:41;;;;;;;28.50;12.67;;;2.50;99.90;;;;;;5032494;28;20547;-75
2023/02/25 07:01:11;;;;;;;28.67;12.80;;;2.50;99.90;;;;;;5011110;28;20248;-73
2023/02/25 07:03:38;;;;;;;32.70;13.93;;;2.40;99.90;;;;;;5018177;28;20192;-70
2023/02/25 07:06:06;;;;;;;31.17;13.57;;;2.40;99.90;;;;;;5021627;28;20194;-71
2023/02/25 07:08:33;;;;;;;27.03;14.03;;;2.50;99.90;;;;;;5021785;28;20197;-70
2023/02/25 07:11:18;;;;;;;29.60;13.40;;;2.50;99.90;;;;;;5024487;28;20199;-70
2023/02/25 07:13:49;;;;;;;27.67;13.43;;;2.60;99.90;;;;;;5024813;28;20751;-67
2023/02/25 07:16:16;;;;;;;29.93;14.40;;;2.50;99.90;;;;;;5030075;28;20198;-69
2023/02/25 07:18:44;;;;;;;27.90;13.90;;;2.50;99.90;;;;;;4987202;28;20650;-69
2023/02/25 07:21:11;;;;;;;32.37;14.27;;;2.50;99.90;;;;;;4970982;28;20563;-72
2023/02/25 07:23:38;;;;;;;28.50;14.43;;;2.50;99.90;;;;;;4985232;28;20209;-72
2023/02/25 07:26:07;;;;;;;30.00;14.80;;;2.50;99.90;;;;;;4954660;28;20209;-71
2023/02/25 07:28:34;;;;;;;30.53;14.23;;;2.50;99.90;;;;;;4954948;28;20205;-70
2023/02/25 07:31:18;;;;;;;29.43;14.37;;;2.50;99.90;;;;;;4971290;28;20194;-71
2023/02/25 07:33:45;;;;;;;30.60;14.27;;;2.60;99.90;;;;;;4954570;28;20240;-72
2023/02/25 07:36:13;;;;;;;27.70;13.47;;;2.60;99.90;;;;;;4964792;28;20207;-72
2023/02/25 07:38:40;;;;;;;29.23;13.97;;;2.60;99.90;;;;;;5012125;28;20207;-74
2023/02/25 07:41:10;;;;;;;30.73;14.30;;;2.60;99.90;;;;;;5014657;28;20192;-71
2023/02/25 07:43:38;;;;;;;26.63;13.33;;;2.70;99.90;;;;;;5024950;28;20200;-74
2023/02/25 07:46:06;;;;;;;26.87;13.60;;;2.70;99.90;;;;;;5035295;28;20184;-72
2023/02/25 07:48:33;;;;;;;27.40;12.80;;;2.70;99.90;;;;;;5035781;28;20207;-71
2023/02/25 07:51:12;;;;;;;24.53;12.80;;;2.70;99.90;;;;;;5034323;28;20235;-72
2023/02/25 07:53:39;;;;;;;29.43;13.37;;;2.80;99.90;;;;;;5033954;28;20227;-74
2023/02/25 07:56:07;;;;;;;27.80;13.63;;;2.90;99.90;;;;;;5035339;28;20188;-74
2023/02/25 07:58:35;;;;;;;25.23;12.97;;;2.90;99.90;;;;;;5033987;28;20246;-71
2023/02/25 08:01:18;;;;;;;26.03;12.40;;;3.00;99.90;;;;;;5034100;28;20507;-71
2023/02/25 08:03:48;;;;;;;27.23;14.27;;;3.00;99.90;;;;;;5034071;28;20216;-73
2023/02/25 08:06:14;;;;;;;28.63;14.23;;;3.00;99.90;;;;;;5033771;28;20214;-72
2023/02/25 08:08:41;;;;;;;29.13;14.53;;;3.00;99.90;;;;;;5035103;28;20200;-72
2023/02/25 08:11:10;;;;;;;26.90;13.40;;;3.10;99.90;;;;;;5035231;28;20226;-75
2023/02/25 08:13:38;;;;;;;27.23;13.47;;;3.10;99.90;;;;;;5033802;28;20218;-72
2023/02/25 08:16:10;;;;;;;31.00;14.20;;;3.10;99.90;;;;;;5033697;28;20200;-75
2023/02/25 08:18:41;;;;;;;27.40;13.73;;;3.10;99.90;;;;;;5035533;28;20629;-73
2023/02/25 08:21:10;;;;;;;26.73;13.27;;;3.10;99.90;;;;;;5016993;28;20235;-75
2023/02/25 08:23:37;;;;;;;26.20;13.53;;;3.10;99.90;;;;;;5035058;28;20185;-77
2023/02/25 08:26:05;;;;;;;26.60;13.90;;;3.10;99.90;;;;;;5016991;28;20266;-74
2023/02/25 08:28:32;;;;;;;26.93;13.53;;;3.10;99.90;;;;;;5033919;28;20597;-72
2023/02/25 08:31:03;;;;;;;23.67;12.27;;;3.20;99.90;;;;;;5033430;28;20203;-71
2023/02/25 08:33:30;;;;;;;24.03;12.27;;;3.20;99.90;;;;;;5032325;28;20211;-71
2023/02/25 08:36:08;;;;;;;26.00;13.57;;;3.30;99.90;;;;;;5021386;28;20636;-71
2023/02/25 08:38:37;;;;;;;21.73;11.83;;;3.40;99.90;;;;;;5034428;28;20650;-70
2023/02/25 08:41:05;;;;;;;23.07;11.87;;;3.30;99.90;;;;;;5033281;28;20215;-71
2023/02/25 08:43:32;;;;;;;22.50;12.17;;;3.30;99.90;;;;;;5018585;28;20199;-70
2023/02/25 08:46:01;;;;;;;19.90;11.20;;;3.30;99.90;;;;;;5032207;28;20211;-74
2023/02/25 08:48:28;;;;;;;21.20;11.53;;;3.40;99.90;;;;;;5033234;28;20196;-76
2023/02/25 08:50:55;;;;;;;19.73;10.73;;;3.40;99.90;;;;;;5032181;28;20230;-79
2023/02/25 08:53:22;;;;;;;23.60;14.23;;;3.50;99.90;;;;;;5032494;28;20505;-71
2023/02/25 08:55:49;;;;;;;18.93;11.30;;;3.50;99.90;;;;;;5012224;28;20561;-79
2023/02/25 08:58:16;;;;;;;21.17;11.37;;;3.60;99.90;;;;;;5013437;28;20204;-75
2023/02/25 09:00:43;;;;;;;18.80;10.03;;;3.60;99.90;;;;;;5013780;28;20205;-78
2023/02/25 09:03:10;;;;;;;19.10;10.63;;;3.70;99.90;;;;;;5018962;28;20658;-76
2023/02/25 09:05:37;;;;;;;19.33;10.63;;;3.70;99.90;;;;;;5033978;28;20196;-74
2023/02/25 09:08:04;;;;;;;20.27;10.70;;;3.70;99.90;;;;;;5032854;28;20193;-74
2023/02/25 09:10:33;;;;;;;17.57;10.00;;;3.70;99.90;;;;;;5032961;28;20206;-77
2023/02/25 09:13:16;;;;;;;17.93;10.07;;;3.80;99.90;;;;;;5033722;28;20238;-74
2023/02/25 09:15:43;;;;;;;19.93;10.37;;;3.80;99.90;;;;;;5032562;28;20210;-73
2023/02/25 09:18:10;;;;;;;18.17;10.37;;;3.90;99.90;;;;;;5032590;28;20231;-75
2023/02/25 09:20:37;;;;;;;16.03;9.77;;;4.00;99.90;;;;;;5034035;28;20596;-73
2023/02/25 09:23:04;;;;;;;15.63;9.47;;;4.00;99.90;;;;;;5032929;28;20201;-74
2023/02/25 09:25:31;;;;;;;19.17;10.53;;;4.10;99.90;;;;;;5032328;28;20298;-76
2023/02/25 09:27:58;;;;;;;18.03;10.03;;;4.20;99.90;;;;;;5032893;28;20208;-74
2023/02/25 09:30:25;;;;;;;18.30;9.83;;;4.20;99.90;;;;;;5032620;28;20195;-77
2023/02/25 09:32:52;;;;;;;17.93;9.87;;;4.40;99.90;;;;;;5032766;28;20634;-75
2023/02/25 09:35:19;;;;;;;17.60;9.90;;;4.50;99.90;;;;;;5032040;28;20314;-78
2023/02/25 09:37:47;;;;;;;15.70;9.63;;;4.50;99.90;;;;;;5033388;28;20279;-82
2023/02/25 09:40:17;;;;;;;16.13;9.50;;;4.60;99.90;;;;;;5033616;28;20197;-77
2023/02/25 09:43:18;;;;;;;14.80;8.37;;;4.70;99.90;;;;;;5032180;28;20233;-74
2023/02/25 09:45:47;;;;;;;12.87;7.57;;;4.60;99.90;;;;;;5032039;28;20205;-74
2023/02/25 09:48:30;;;;;;;14.77;8.30;;;4.50;99.90;;;;;;5031825;28;20216;-75
2023/02/25 09:51:09;;;;;;;12.20;7.70;;;4.60;99.90;;;;;;5032055;28;20292;-76
2023/02/25 09:53:44;;;;;;;15.93;7.60;;;4.60;99.90;;;;;;5032914;28;20748;-74
2023/02/25 09:56:13;;;;;;;10.87;6.60;;;4.70;99.90;;;;;;5031613;28;20198;-75
2023/02/25 09:58:51;;;;;;;11.50;6.57;;;4.80;99.90;;;;;;5031873;28;20293;-75
2023/02/25 10:01:37;;;;;;;10.20;6.57;;;4.90;99.90;;;;;;5031987;28;20194;-75
2023/02/25 10:04:21;;;;;;;9.30;5.50;;;5.00;99.90;;;;;;5015459;28;20200;-75
2023/02/25 10:06:49;;;;;;;8.50;5.30;;;5.10;99.90;;;;;;5031895;28;20195;-75
2023/02/25 10:09:34;;;;;;;8.17;5.00;;;5.00;99.90;;;;;;5032426;28;20198;-76
2023/02/25 10:12:52;;;;;;;7.83;5.13;;;4.90;99.90;;;;;;5033160;28;20210;-76
2023/02/25 10:15:47;;;;;;;7.33;4.93;;;4.90;99.90;;;;;;4955461;28;20244;-77
2023/02/25 10:18:31;;;;;;;9.90;5.57;;;4.90;99.90;;;;;;4971744;28;20316;-74
2023/02/25 10:21:14;;;;;;;8.00;5.03;;;4.80;99.90;;;;;;4956004;28;20200;-76
2023/02/25 10:23:43;;;;;;;11.10;6.00;;;4.90;99.90;;;;;;4971806;28;20211;-74
2023/02/25 10:26:23;;;;;;;8.60;5.20;;;4.90;99.90;;;;;;4955570;28;20196;-73
2023/02/25 10:28:58;;;;;;;9.30;5.27;;;4.90;99.90;;;;;;4955804;28;20289;-75
2023/02/25 10:31:25;;;;;;;8.10;5.07;;;4.70;99.90;;;;;;4971656;28;20208;-74
2023/02/25 10:33:54;;;;;;;8.20;4.50;;;4.70;99.90;;;;;;4971419;28;20642;-76
2023/02/25 10:36:30;;;;;;;4.60;3.20;;;4.60;99.90;;;;;;4955146;28;20190;-78
2023/02/25 10:39:03;;;;;;;6.07;3.70;;;4.30;99.90;;;;;;4971462;28;20697;-78
2023/02/25 10:41:34;;;;;;;4.37;3.30;;;3.90;99.90;;;;;;4941273;28;20670;-92
2023/02/25 10:44:02;;;;;;;6.40;4.40;;;3.70;99.90;;;;;;4935723;29;20445;-80
2023/02/25 10:46:40;;;;;;;5.70;4.03;;;3.60;99.90;;;;;;4995665;28;20295;-79
2023/02/25 10:49:21;;;;;;;5.77;4.03;;;3.50;99.90;;;;;;4995215;28;20287;-78
2023/02/25 10:52:01;;;;;;;6.00;4.00;;;3.50;99.90;;;;;;5011815;28;20197;-79
2023/02/25 10:54:34;;;;;;;5.20;3.67;;;3.70;99.90;;;;;;5028579;28;20262;-76
2023/02/25 10:57:11;;;;;;;7.67;4.03;;;3.60;99.90;;;;;;5014078;28;20207;-85
2023/02/25 10:59:41;;;;;;;7.10;3.70;;;3.70;99.90;;;;;;5015025;28;20988;-83
2023/02/25 11:02:27;;;;;;;8.90;4.23;;;3.70;99.90;;;;;;5035774;28;20203;-91
2023/02/25 11:04:55;;;;;;;8.17;4.40;;;3.70;99.90;;;;;;5028278;28;20199;-77
2023/02/25 11:07:42;;;;;;;6.37;3.97;;;3.80;99.90;;;;;;5022848;28;20277;-85
2023/02/25 11:10:20;;;;;;;8.10;4.00;;;3.80;99.90;;;;;;5055752;28;20607;-81
2023/02/25 11:12:56;;;;;;;5.70;3.70;;;3.90;99.90;;;;;;5053622;28;20191;-80
2023/02/25 11:15:34;;;;;;;5.47;3.57;;;3.90;99.90;;;;;;5045119;28;20230;-79
2023/02/25 11:18:26;;;;;;;6.13;4.17;;;3.80;99.90;;;;;;5035947;28;20233;-84
2023/02/25 11:21:06;;;;;;;6.93;4.27;;;3.80;99.90;;;;;;5038013;28;20203;-83
2023/02/25 11:23:41;;;;;;;6.53;4.27;;;3.70;99.90;;;;;;5036514;28;20192;-86
2023/02/25 11:26:14;;;;;;;7.43;4.40;;;3.80;99.90;;;;;;5037591;28;20216;-82
2023/02/25 11:28:47;;;;;;;6.37;4.30;;;3.70;99.90;;;;;;5036340;28;20192;-85
2023/02/25 11:31:23;;;;;;;8.13;4.60;;;3.80;99.90;;;;;;5033147;28;20201;-75
2023/02/25 11:33:59;;;;;;;6.83;4.63;;;3.70;99.90;;;;;;5039701;28;20291;-73
2023/02/25 11:36:40;;;;;;;8.13;5.27;;;3.70;99.90;;;;;;5035490;28;20192;-75
2023/02/25 11:39:23;;;;;;;8.03;5.00;;;3.90;99.90;;;;;;5035067;28;20198;-77
2023/02/25 11:41:53;;;;;;;9.60;5.17;;;3.90;99.90;;;;;;5035571;28;20197;-74
2023/02/25 11:44:30;;;;;;;7.80;5.10;;;3.90;99.90;;;;;;5034925;28;20216;-72
2023/02/25 11:47:15;;;;;;;9.17;5.20;;;4.00;99.90;;;;;;5034890;28;20239;-78
2023/02/25 11:49:59;;;;;;;8.27;5.40;;;4.20;99.90;;;;;;5034995;28;20218;-81
2023/02/25 11:53:12;;;;;;;9.27;5.07;;;4.20;99.90;;;;;;5035938;28;20188;-79
2023/02/25 11:56:03;;;;;;;6.80;4.70;;;4.30;99.90;;;;;;4920475;29;20316;-77
2023/02/25 11:58:45;;;;;;;7.73;4.30;;;5.00;99.90;;;;;;4919397;29;20211;-76
2023/02/25 12:01:56;;;;;;;6.10;4.53;;;5.10;99.90;;;;;;4919170;29;20208;-69
2023/02/25 12:04:51;;;;;;;9.27;4.70;;;5.40;99.90;;;;;;4896006;29;20678;-79
2023/02/25 12:07:43;;;;;;;5.33;4.20;;;5.40;99.90;;;;;;4895579;29;20206;-81
2023/02/25 12:10:49;;;;;;;6.13;4.33;;;5.30;99.90;;;;;;4896254;29;20529;-75
2023/02/25 12:13:38;;;;;;;6.70;4.70;;;5.20;99.90;;;;;;4897532;29;20290;-77
2023/02/25 12:16:24;;;;;;;6.73;4.40;;;5.00;99.90;;;;;;4896003;29;20232;-74
2023/02/25 12:19:11;;;;;;;6.13;4.07;;;4.90;99.90;;;;;;4896784;29;20217;-74
2023/02/25 12:22:00;;;;;;;4.97;3.50;;;4.20;99.90;;;;;;4879037;29;20200;-75
2023/02/25 12:24:50;;;;;;;6.30;4.20;;;3.70;99.90;;;;;;4861003;29;20551;-73
2023/02/25 12:27:43;;;;;;;7.27;3.90;;;3.40;99.90;;;;;;4925544;28;20210;-68
2023/02/25 12:30:40;;;;;;;7.37;4.37;;;3.10;99.90;;;;;;4955746;28;20575;-73
2023/02/25 12:33:30;;;;;;;7.50;4.37;;;3.00;99.90;;;;;;4937363;29;20313;-78
2023/02/25 12:36:04;;;;;;;5.80;3.63;;;3.00;99.90;;;;;;4952899;28;20704;-75
2023/02/25 12:38:49;;;;;;;7.27;3.40;;;2.90;99.90;;;;;;4951997;28;20233;-69
2023/02/25 12:41:32;;;;;;;4.93;3.37;;;2.90;99.90;;;;;;4952221;29;20314;-72
2023/02/25 12:44:30;;;;;;;4.73;3.40;;;2.70;99.90;;;;;;4926812;29;20226;-76
2023/02/25 12:47:22;;;;;;;5.47;3.47;;;2.60;99.90;;;;;;4935167;29;20210;-75
2023/02/25 12:50:14;;;;;;;7.03;3.90;;;2.70;99.90;;;;;;4919198;29;20661;-75
2023/02/25 12:52:47;;;;;;;6.10;3.83;;;2.90;99.90;;;;;;4921753;28;20195;-73
2023/02/25 12:55:40;;;;;;;10.13;4.40;;;3.30;99.90;;;;;;4954147;28;20219;-73
2023/02/25 12:58:34;;;;;;;7.53;4.57;;;3.70;99.90;;;;;;4970234;28;20205;-73
2023/02/25 13:01:39;;;;;;;8.43;3.90;;;4.20;99.90;;;;;;5032997;28;20555;-70
2023/02/25 13:04:15;;;;;;;7.73;3.87;;;4.50;99.90;;;;;;5034029;28;20280;-74
2023/02/25 13:06:57;;;;;;;5.07;3.60;;;5.00;99.90;;;;;;5032821;28;20662;-71
2023/02/25 13:09:39;;;;;;;6.13;3.60;;;5.10;99.90;;;;;;5033095;28;20213;-73
2023/02/25 13:12:14;;;;;;;5.80;3.50;;;5.10;99.90;;;;;;5014086;28;20189;-72
2023/02/25 13:15:10;;;;;;;4.73;3.40;;;5.00;99.90;;;;;;5031090;28;20229;-72